Time;durP1;ratioP1;P1;durP2;ratioP2;P2;SDS_P1;SDS_P2;PMS_P1;PMS_P2;Temp;Humidity;BMP_temperature;BMP_pressure;BME280_temperature;BME280_humidity;BME280_pressure;Samples;Min_cycle;Max_cycle;Signal;HPM_P1;HPM_P2
2021/01/26 00:02:12;;;;;;;4.40;2.33;;;;;;;;;;4395551;32;20316;-59
2021/01/26 00:04:38;;;;;;;7.83;3.50;;;;;;;;;;4386202;32;20709;-60
2021/01/26 00:07:04;;;;;;;9.30;2.87;;;;;;;;;;4382243;32;20448;-59
2021/01/26 00:09:30;;;;;;;9.43;2.77;;;;;;;;;;4396787;32;20292;-64
2021/01/26 00:11:56;;;;;;;5.13;2.80;;;;;;;;;;4379659;32;20910;-61
2021/01/26 06:56:09;;;;;;;48.23;23.87;;;;;;;;;;4391726;32;20509;-51
2021/01/26 06:58:47;;;;;;;35.13;17.33;;;;;;;;;;4397683;32;20253;-52
2021/01/26 07:01:31;;;;;;;34.93;18.17;;;;;;;;;;4396742;32;20217;-52
2021/01/26 07:04:02;;;;;;;25.03;13.00;;;;;;;;;;4400243;32;20213;-53
2021/01/26 07:06:27;;;;;;;24.93;12.93;;;;;;;;;;4396897;32;20255;-53
2021/01/26 07:09:15;;;;;;;24.30;15.53;;;;;;;;;;4393246;32;20547;-52
2021/01/26 07:12:00;;;;;;;20.20;10.97;;;;;;;;;;4395543;32;20289;-52
2021/01/26 07:14:47;;;;;;;18.73;9.83;;;;;;;;;;4399103;32;20221;-52
2021/01/26 07:17:24;;;;;;;30.77;15.57;;;;;;;;;;4400238;32;20284;-52
2021/01/26 07:20:02;;;;;;;36.80;16.90;;;;;;;;;;4385344;32;20233;-52
2021/01/26 07:22:46;;;;;;;16.77;7.87;;;;;;;;;;4399808;32;20564;-52
2021/01/26 07:25:49;;;;;;;10.03;7.13;;;;;;;;;;4383125;32;20269;-52
2021/01/26 07:28:29;;;;;;;10.77;5.70;;;;;;;;;;4398951;32;20335;-51
2021/01/26 07:31:19;;;;;;;8.83;4.70;;;;;;;;;;4399760;32;20271;-52
2021/01/26 07:33:55;;;;;;;14.17;8.10;;;;;;;;;;4401121;32;20239;-51
2021/01/26 07:36:53;;;;;;;12.00;6.00;;;;;;;;;;4400844;32;20354;-51
2021/01/26 07:39:35;;;;;;;8.50;5.00;;;;;;;;;;4395242;32;20366;-52
2021/01/26 07:42:06;;;;;;;7.70;4.40;;;;;;;;;;4399208;32;20299;-50
2021/01/26 07:44:48;;;;;;;5.63;3.50;;;;;;;;;;4401797;32;20724;-53
2021/01/26 07:47:28;;;;;;;9.10;5.43;;;;;;;;;;4397742;32;20251;-52
2021/01/26 07:50:03;;;;;;;5.10;3.10;;;;;;;;;;4394045;32;20213;-52
2021/01/26 07:52:32;;;;;;;4.47;3.33;;;;;;;;;;4399133;32;20249;-51
2021/01/26 07:55:21;;;;;;;6.90;4.00;;;;;;;;;;4399471;32;20265;-52
2021/01/26 07:58:05;;;;;;;9.73;4.80;;;;;;;;;;4392648;32;20267;-52
2021/01/26 08:00:40;;;;;;;7.33;4.30;;;;;;;;;;4400709;32;20292;-52
2021/01/26 08:03:05;;;;;;;13.73;7.70;;;;;;;;;;4399838;32;20589;-52
2021/01/26 08:05:46;;;;;;;13.67;8.17;;;;;;;;;;4397839;32;20305;-53
2021/01/26 08:08:22;;;;;;;12.77;6.73;;;;;;;;;;4398297;32;20256;-53
2021/01/26 08:11:24;;;;;;;9.93;7.00;;;;;;;;;;4401590;32;20214;-53
2021/01/26 08:14:05;;;;;;;13.87;6.17;;;;;;;;;;4401108;32;20251;-51
2021/01/26 08:16:36;;;;;;;10.73;6.10;;;;;;;;;;4398054;32;20273;-51
2021/01/26 08:19:04;;;;;;;17.43;7.37;;;;;;;;;;4387221;32;20446;-52
2021/01/26 08:21:31;;;;;;;8.50;5.30;;;;;;;;;;4401628;32;20244;-54
2021/01/26 08:24:11;;;;;;;8.63;5.93;;;;;;;;;;4400304;32;20214;-51
2021/01/26 08:26:37;;;;;;;8.40;4.77;;;;;;;;;;4398568;32;21547;-54
2021/01/26 08:29:03;;;;;;;7.57;4.33;;;;;;;;;;4401298;32;20209;-57
2021/01/26 08:31:38;;;;;;;7.30;4.83;;;;;;;;;;4398076;32;20287;-55
2021/01/26 08:34:23;;;;;;;8.70;5.10;;;;;;;;;;4401535;32;20563;-55
2021/01/26 08:37:11;;;;;;;12.83;4.90;;;;;;;;;;4399037;32;20314;-56
2021/01/26 08:39:43;;;;;;;9.87;5.10;;;;;;;;;;4395845;32;20779;-52
2021/01/26 08:42:09;;;;;;;10.27;5.20;;;;;;;;;;4398618;32;20269;-52
2021/01/26 08:44:35;;;;;;;6.73;4.07;;;;;;;;;;4401031;32;20194;-52
2021/01/26 08:47:39;;;;;;;10.43;5.33;;;;;;;;;;4399303;32;20304;-52
2021/01/26 08:50:20;;;;;;;6.33;4.10;;;;;;;;;;4400813;32;20334;-52
2021/01/26 08:52:46;;;;;;;6.43;3.83;;;;;;;;;;4401918;32;20241;-52
2021/01/26 08:55:36;;;;;;;5.73;3.33;;;;;;;;;;4401555;32;20217;-52
2021/01/26 08:58:02;;;;;;;6.70;3.80;;;;;;;;;;4400598;32;20649;-52
2021/01/26 09:00:38;;;;;;;7.43;4.20;;;;;;;;;;4395931;32;20268;-52
2021/01/26 09:03:24;;;;;;;10.17;3.77;;;;;;;;;;4398622;32;20234;-52
2021/01/26 09:05:54;;;;;;;2.43;2.00;;;;;;;;;;4396523;32;21298;-52
2021/01/26 09:08:42;;;;;;;3.53;2.50;;;;;;;;;;4386711;32;20645;-53
2021/01/26 09:11:13;;;;;;;4.97;3.77;;;;;;;;;;4399986;32;20312;-53
2021/01/26 09:13:40;;;;;;;6.33;3.47;;;;;;;;;;4395129;32;20259;-52
2021/01/26 09:16:25;;;;;;;8.23;5.10;;;;;;;;;;4399725;32;20323;-52
2021/01/26 09:18:57;;;;;;;9.03;5.77;;;;;;;;;;4398756;32;20413;-54
2021/01/26 09:21:23;;;;;;;3.57;2.90;;;;;;;;;;4399755;32;20251;-53
2021/01/26 09:23:54;;;;;;;4.40;2.77;;;;;;;;;;4400865;32;20304;-53
2021/01/26 09:26:19;;;;;;;5.57;2.57;;;;;;;;;;4400961;32;20780;-52
2021/01/26 09:28:48;;;;;;;6.83;3.60;;;;;;;;;;4400706;32;20268;-52
2021/01/26 09:31:17;;;;;;;3.77;2.70;;;;;;;;;;4400000;32;20351;-52
2021/01/26 09:33:43;;;;;;;8.73;4.60;;;;;;;;;;4400365;32;20608;-52
2021/01/26 09:36:12;;;;;;;5.77;3.87;;;;;;;;;;4399191;32;20253;-52
2021/01/26 09:38:41;;;;;;;6.00;3.70;;;;;;;;;;4399225;32;20240;-52
2021/01/26 09:41:12;;;;;;;6.13;3.40;;;;;;;;;;4398881;32;20575;-52
2021/01/26 09:43:42;;;;;;;13.77;7.13;;;;;;;;;;4399684;32;20361;-52
2021/01/26 09:46:21;;;;;;;11.70;6.83;;;;;;;;;;4398960;32;20392;-53
2021/01/26 09:48:50;;;;;;;26.07;16.73;;;;;;;;;;4393728;32;20257;-53
2021/01/26 09:51:23;;;;;;;24.87;12.67;;;;;;;;;;4398135;32;20331;-53
2021/01/26 09:54:00;;;;;;;12.80;5.73;;;;;;;;;;4398333;32;20312;-52
2021/01/26 09:56:26;;;;;;;5.37;3.10;;;;;;;;;;4399327;32;20631;-52
2021/01/26 09:58:53;;;;;;;9.97;6.17;;;;;;;;;;4386743;32;20439;-53
2021/01/26 10:01:21;;;;;;;22.07;10.47;;;;;;;;;;4396526;32;20307;-52
2021/01/26 10:03:48;;;;;;;19.07;10.87;;;;;;;;;;4400484;32;20245;-51
2021/01/26 10:06:17;;;;;;;14.70;8.37;;;;;;;;;;4398820;32;20302;-52
2021/01/26 10:08:43;;;;;;;15.83;10.57;;;;;;;;;;4400406;32;20335;-53
2021/01/26 10:11:11;;;;;;;17.53;10.20;;;;;;;;;;4398161;32;20276;-53
2021/01/26 10:13:38;;;;;;;19.93;12.60;;;;;;;;;;4398998;32;20308;-52
2021/01/26 10:16:30;;;;;;;13.67;9.73;;;;;;;;;;4398266;32;20333;-53
2021/01/26 10:18:57;;;;;;;21.10;12.67;;;;;;;;;;4397646;32;20269;-53
2021/01/26 10:21:30;;;;;;;5.77;4.03;;;;;;;;;;4399375;32;20221;-54
2021/01/26 10:24:11;;;;;;;9.03;5.80;;;;;;;;;;4399426;32;20209;-52
2021/01/26 10:26:39;;;;;;;10.80;7.33;;;;;;;;;;4397803;32;20253;-54
2021/01/26 10:29:10;;;;;;;25.03;12.80;;;;;;;;;;4399687;32;20236;-53
2021/01/26 10:31:48;;;;;;;19.17;9.50;;;;;;;;;;4399072;32;20372;-52
2021/01/26 10:34:48;;;;;;;5.17;3.50;;;;;;;;;;4383145;32;20343;-52
2021/01/26 10:37:18;;;;;;;10.30;7.13;;;;;;;;;;4395045;32;20271;-52
2021/01/26 10:39:46;;;;;;;7.20;4.53;;;;;;;;;;4398809;32;20594;-51
2021/01/26 10:42:23;;;;;;;11.17;8.00;;;;;;;;;;4399500;32;20767;-52
2021/01/26 10:44:48;;;;;;;29.13;16.30;;;;;;;;;;4394947;32;20252;-53
2021/01/26 10:47:17;;;;;;;18.63;11.77;;;;;;;;;;4395514;32;20765;-52
2021/01/26 10:49:42;;;;;;;11.60;8.43;;;;;;;;;;4399249;32;20218;-53
2021/01/26 10:52:09;;;;;;;105.10;46.40;;;;;;;;;;4398258;32;20279;-52
2021/01/26 10:54:36;;;;;;;42.23;23.23;;;;;;;;;;4394477;32;20402;-53
2021/01/26 10:57:02;;;;;;;34.97;20.43;;;;;;;;;;4396125;32;20350;-51
2021/01/26 10:59:27;;;;;;;22.20;13.30;;;;;;;;;;4391143;32;20253;-52
2021/01/26 11:01:53;;;;;;;16.87;10.63;;;;;;;;;;4394991;32;20305;-52
2021/01/26 11:04:19;;;;;;;38.90;23.37;;;;;;;;;;4397370;32;20415;-52
2021/01/26 11:06:44;;;;;;;36.03;23.80;;;;;;;;;;4383359;32;20255;-52
2021/01/26 11:09:12;;;;;;;43.97;25.70;;;;;;;;;;4396381;32;20283;-52
2021/01/26 11:11:38;;;;;;;64.37;36.27;;;;;;;;;;4394455;32;20317;-52
2021/01/26 11:14:06;;;;;;;47.07;28.37;;;;;;;;;;4383518;32;20288;-53
2021/01/26 11:16:31;;;;;;;54.20;31.67;;;;;;;;;;4396164;32;20276;-53
2021/01/26 11:18:58;;;;;;;24.00;15.97;;;;;;;;;;4398029;32;20288;-52
2021/01/26 11:21:25;;;;;;;21.77;10.83;;;;;;;;;;4393181;32;20355;-52
2021/01/26 11:23:51;;;;;;;15.73;8.53;;;;;;;;;;4382301;32;20837;-52
2021/01/26 11:26:20;;;;;;;28.87;16.70;;;;;;;;;;4396586;32;20257;-52
2021/01/26 11:28:45;;;;;;;14.27;10.03;;;;;;;;;;4396331;32;20304;-53
2021/01/26 11:31:13;;;;;;;26.70;16.20;;;;;;;;;;4396546;32;20264;-52
2021/01/26 11:33:38;;;;;;;8.03;5.47;;;;;;;;;;4395113;32;20603;-52
2021/01/26 11:36:05;;;;;;;8.40;6.60;;;;;;;;;;4395172;32;20247;-52
2021/01/26 11:38:31;;;;;;;17.40;11.27;;;;;;;;;;4381130;32;20202;-52
2021/01/26 11:40:58;;;;;;;15.37;10.87;;;;;;;;;;4398149;32;20241;-52
2021/01/26 11:43:24;;;;;;;31.67;19.83;;;;;;;;;;4394016;32;20555;-52
2021/01/26 11:45:50;;;;;;;14.27;11.30;;;;;;;;;;4396079;32;20241;-52
2021/01/26 11:48:17;;;;;;;10.13;7.77;;;;;;;;;;4398616;32;20352;-52
2021/01/26 11:50:43;;;;;;;14.37;8.80;;;;;;;;;;4395954;32;20276;-52
2021/01/26 11:53:10;;;;;;;9.13;6.50;;;;;;;;;;4398291;32;20229;-52
2021/01/26 11:55:37;;;;;;;28.70;18.53;;;;;;;;;;4394260;32;20364;-53
2021/01/26 11:58:04;;;;;;;14.63;9.50;;;;;;;;;;4395990;32;20293;-53
2021/01/26 12:00:31;;;;;;;69.80;35.90;;;;;;;;;;4395346;32;21608;-53
2021/01/26 12:02:59;;;;;;;19.20;10.40;;;;;;;;;;4398548;32;20244;-53
2021/01/26 12:05:27;;;;;;;20.13;15.10;;;;;;;;;;4398632;32;20305;-52
2021/01/26 12:07:53;;;;;;;24.33;14.67;;;;;;;;;;4400750;32;20282;-52
2021/01/26 12:10:19;;;;;;;22.93;14.07;;;;;;;;;;4400596;32;20237;-52
2021/01/26 12:12:44;;;;;;;10.93;7.83;;;;;;;;;;4385243;32;20264;-50
2021/01/26 12:15:14;;;;;;;19.80;11.87;;;;;;;;;;4398029;32;20515;-50
2021/01/26 12:17:40;;;;;;;19.57;11.73;;;;;;;;;;4401192;32;20501;-53
2021/01/26 12:20:06;;;;;;;20.47;11.73;;;;;;;;;;4400277;32;20410;-52
2021/01/26 12:22:32;;;;;;;20.70;13.87;;;;;;;;;;4399896;32;20399;-52
2021/01/26 12:24:57;;;;;;;20.27;14.50;;;;;;;;;;4400421;32;20394;-52
2021/01/26 12:27:23;;;;;;;22.33;15.93;;;;;;;;;;4399727;32;20262;-52
2021/01/26 12:29:48;;;;;;;19.57;10.97;;;;;;;;;;4387326;32;20334;-54
2021/01/26 12:32:14;;;;;;;11.10;7.87;;;;;;;;;;4401043;32;20305;-51
2021/01/26 12:34:40;;;;;;;13.93;8.87;;;;;;;;;;4400796;32;20271;-51
2021/01/26 12:37:05;;;;;;;8.10;5.37;;;;;;;;;;4384635;32;20336;-51
2021/01/26 12:39:31;;;;;;;8.27;6.67;;;;;;;;;;4400768;32;20304;-51
2021/01/26 12:41:56;;;;;;;9.33;6.10;;;;;;;;;;4400276;32;20737;-51
2021/01/26 12:44:22;;;;;;;10.97;7.20;;;;;;;;;;4401098;32;20308;-51
2021/01/26 12:46:47;;;;;;;8.07;5.47;;;;;;;;;;4400460;32;20231;-51
2021/01/26 12:49:13;;;;;;;14.43;8.83;;;;;;;;;;4384785;32;20702;-51
2021/01/26 12:51:38;;;;;;;8.77;6.33;;;;;;;;;;4394302;32;20275;-51
2021/01/26 12:54:05;;;;;;;11.93;8.87;;;;;;;;;;4400893;32;20228;-51
2021/01/26 12:56:30;;;;;;;24.73;16.17;;;;;;;;;;4399596;32;20237;-51
2021/01/26 12:58:55;;;;;;;41.30;19.83;;;;;;;;;;4386953;32;20524;-51
2021/01/26 13:01:23;;;;;;;16.53;11.03;;;;;;;;;;4398313;32;20313;-51
2021/01/26 13:03:48;;;;;;;22.73;14.33;;;;;;;;;;4396218;32;20321;-52
2021/01/26 13:06:14;;;;;;;28.87;16.53;;;;;;;;;;4385052;32;20264;-52
2021/01/26 13:08:39;;;;;;;22.80;15.63;;;;;;;;;;4399775;32;20407;-52
2021/01/26 13:11:04;;;;;;;27.30;16.27;;;;;;;;;;4398896;32;20263;-52
2021/01/26 13:13:30;;;;;;;19.90;12.23;;;;;;;;;;4396582;32;20864;-52
2021/01/26 13:15:56;;;;;;;24.17;15.63;;;;;;;;;;4385042;32;20967;-52
2021/01/26 13:18:21;;;;;;;19.30;12.60;;;;;;;;;;4398175;32;20291;-52
2021/01/26 13:20:47;;;;;;;28.57;16.27;;;;;;;;;;4399439;32;20327;-52
2021/01/26 13:23:13;;;;;;;31.97;19.23;;;;;;;;;;4399673;32;20260;-52
2021/01/26 13:25:39;;;;;;;22.90;14.10;;;;;;;;;;4398087;32;20606;-53
2021/01/26 13:28:05;;;;;;;11.87;7.43;;;;;;;;;;4387439;32;20253;-52
2021/01/26 13:30:31;;;;;;;9.50;6.00;;;;;;;;;;4397765;32;20338;-53
2021/01/26 13:32:57;;;;;;;15.23;9.57;;;;;;;;;;4399628;32;20912;-51
2021/01/26 13:35:31;;;;;;;11.63;8.27;;;;;;;;;;4395979;32;20263;-52
2021/01/26 13:37:57;;;;;;;11.70;7.43;;;;;;;;;;4398955;32;20713;-52
2021/01/26 13:40:23;;;;;;;7.23;4.67;;;;;;;;;;4400168;32;20265;-53
2021/01/26 13:42:50;;;;;;;5.47;3.43;;;;;;;;;;4398602;32;20316;-52
2021/01/26 13:45:18;;;;;;;7.67;5.77;;;;;;;;;;4383516;32;20230;-52
2021/01/26 13:47:44;;;;;;;14.20;7.43;;;;;;;;;;4400178;32;20255;-52
2021/01/26 13:50:11;;;;;;;8.63;5.97;;;;;;;;;;4400220;32;20245;-52
2021/01/26 13:52:37;;;;;;;8.33;5.60;;;;;;;;;;4385298;32;20241;-52
2021/01/26 13:55:05;;;;;;;13.50;7.47;;;;;;;;;;4397476;32;20705;-51
2021/01/26 13:57:31;;;;;;;17.13;8.93;;;;;;;;;;4383948;32;20328;-51
2021/01/26 13:59:56;;;;;;;12.90;7.13;;;;;;;;;;4400525;32;20251;-51
2021/01/26 14:02:22;;;;;;;15.30;7.70;;;;;;;;;;4398374;32;20322;-50
2021/01/26 14:04:47;;;;;;;30.30;14.73;;;;;;;;;;4396648;32;20555;-51
2021/01/26 14:07:13;;;;;;;11.90;6.13;;;;;;;;;;4395382;32;20265;-52
2021/01/26 14:09:39;;;;;;;11.83;6.30;;;;;;;;;;4383895;32;20556;-52
2021/01/26 14:12:05;;;;;;;9.20;4.13;;;;;;;;;;4398474;32;20326;-52
2021/01/26 14:14:30;;;;;;;20.87;9.67;;;;;;;;;;4383029;32;20346;-52
2021/01/26 14:16:56;;;;;;;17.73;6.70;;;;;;;;;;4398125;32;20367;-51
2021/01/26 14:19:21;;;;;;;18.70;7.83;;;;;;;;;;4385076;32;20295;-50
2021/01/26 14:21:47;;;;;;;38.80;11.90;;;;;;;;;;4396614;32;20270;-50
2021/01/26 14:24:13;;;;;;;19.40;8.10;;;;;;;;;;4392372;32;20367;-51
2021/01/26 14:26:39;;;;;;;4.37;3.57;;;;;;;;;;4396459;32;20655;-52
2021/01/26 14:29:06;;;;;;;8.17;6.37;;;;;;;;;;4396694;32;20210;-52
2021/01/26 14:31:33;;;;;;;14.93;9.03;;;;;;;;;;4395796;32;20226;-51
2021/01/26 14:34:00;;;;;;;8.20;4.97;;;;;;;;;;4395312;32;20595;-51
2021/01/26 14:36:26;;;;;;;12.80;8.10;;;;;;;;;;4382045;32;20558;-51
2021/01/26 14:38:51;;;;;;;9.07;6.43;;;;;;;;;;4396201;32;20363;-50
2021/01/26 14:41:17;;;;;;;6.27;4.90;;;;;;;;;;4397188;32;20650;-51
2021/01/26 14:43:42;;;;;;;20.63;12.03;;;;;;;;;;4381870;32;20651;-51
2021/01/26 14:46:08;;;;;;;10.60;5.83;;;;;;;;;;4395215;32;20244;-51
2021/01/26 14:48:33;;;;;;;7.40;5.43;;;;;;;;;;4382766;32;20391;-51
2021/01/26 14:50:59;;;;;;;12.50;10.10;;;;;;;;;;4397261;32;20255;-52
2021/01/26 14:53:24;;;;;;;17.13;11.67;;;;;;;;;;4381166;32;20482;-51
2021/01/26 14:55:49;;;;;;;13.63;10.63;;;;;;;;;;4396685;32;20291;-50
2021/01/26 14:58:15;;;;;;;12.80;8.80;;;;;;;;;;4397709;32;20288;-51
2021/01/26 15:00:40;;;;;;;12.17;8.17;;;;;;;;;;4392909;32;20711;-51
2021/01/26 15:03:06;;;;;;;17.07;10.43;;;;;;;;;;4397680;32;20206;-52
2021/01/26 15:05:32;;;;;;;22.20;11.40;;;;;;;;;;4397510;32;21283;-51
2021/01/26 15:07:57;;;;;;;10.57;8.03;;;;;;;;;;4394738;32;20229;-50
2021/01/26 15:10:23;;;;;;;12.17;6.03;;;;;;;;;;4367384;32;20271;-51
2021/01/26 15:12:49;;;;;;;10.03;6.77;;;;;;;;;;4395036;32;20300;-51
2021/01/26 15:15:17;;;;;;;17.03;10.10;;;;;;;;;;4394383;32;20403;-52
2021/01/26 15:17:43;;;;;;;23.57;13.30;;;;;;;;;;4397751;32;20261;-50
2021/01/26 15:20:10;;;;;;;30.50;15.53;;;;;;;;;;4398774;32;20230;-52
2021/01/26 15:22:35;;;;;;;50.63;23.93;;;;;;;;;;4395369;32;20263;-52
2021/01/26 15:25:01;;;;;;;25.03;16.93;;;;;;;;;;4396465;32;20299;-52
2021/01/26 15:27:26;;;;;;;31.30;17.17;;;;;;;;;;4392650;32;20214;-52
2021/01/26 15:29:52;;;;;;;21.23;12.17;;;;;;;;;;4392329;32;20245;-52
2021/01/26 15:32:18;;;;;;;19.50;10.57;;;;;;;;;;4394284;32;20349;-52
2021/01/26 15:34:43;;;;;;;23.37;11.70;;;;;;;;;;4394590;32;20786;-51
2021/01/26 15:37:09;;;;;;;27.47;16.53;;;;;;;;;;4398360;32;20259;-51
2021/01/26 15:39:34;;;;;;;26.57;16.50;;;;;;;;;;4385628;32;20368;-52
2021/01/26 15:42:00;;;;;;;13.90;8.43;;;;;;;;;;4381765;32;20245;-50
2021/01/26 15:44:25;;;;;;;29.30;15.40;;;;;;;;;;4400077;32;20213;-50
2021/01/26 15:46:51;;;;;;;23.73;13.83;;;;;;;;;;4396773;32;20316;-50
2021/01/26 15:49:17;;;;;;;21.87;13.47;;;;;;;;;;4397214;32;20354;-50
2021/01/26 15:51:43;;;;;;;35.77;20.47;;;;;;;;;;4398809;32;20354;-49
2021/01/26 15:54:08;;;;;;;33.53;18.43;;;;;;;;;;4398416;32;20727;-50
2021/01/26 15:56:34;;;;;;;26.37;15.13;;;;;;;;;;4395964;32;20222;-50
2021/01/26 15:58:59;;;;;;;19.70;13.00;;;;;;;;;;4399999;32;20301;-51
2021/01/26 16:01:25;;;;;;;26.47;19.20;;;;;;;;;;4398698;32;20688;-51
2021/01/26 16:03:53;;;;;;;17.03;11.43;;;;;;;;;;4400520;32;20339;-51
2021/01/26 16:06:19;;;;;;;20.47;13.70;;;;;;;;;;4399041;32;20428;-52
2021/01/26 16:08:44;;;;;;;18.13;12.80;;;;;;;;;;4400931;32;20626;-53
2021/01/26 16:11:10;;;;;;;15.00;11.67;;;;;;;;;;4398195;32;20248;-53
2021/01/26 16:13:36;;;;;;;20.43;13.47;;;;;;;;;;4398334;32;20547;-52
2021/01/26 16:16:02;;;;;;;19.97;12.70;;;;;;;;;;4398154;32;20410;-52
2021/01/26 16:18:27;;;;;;;30.17;20.27;;;;;;;;;;4397336;32;20348;-53
2021/01/26 16:20:53;;;;;;;33.33;22.27;;;;;;;;;;4383066;32;20490;-52
2021/01/26 16:23:20;;;;;;;33.57;21.30;;;;;;;;;;4401283;32;20231;-51
2021/01/26 16:25:45;;;;;;;73.00;39.40;;;;;;;;;;4384530;32;20372;-51
2021/01/26 16:28:14;;;;;;;80.83;42.23;;;;;;;;;;4385849;32;20797;-52
2021/01/26 16:30:40;;;;;;;65.77;37.63;;;;;;;;;;4398188;32;20407;-52
2021/01/26 16:33:06;;;;;;;76.27;39.47;;;;;;;;;;4401044;32;20267;-52
2021/01/26 16:35:32;;;;;;;149.93;80.73;;;;;;;;;;4397477;32;20293;-53
2021/01/26 16:37:57;;;;;;;32.17;19.17;;;;;;;;;;4399116;32;20229;-52
2021/01/26 16:40:26;;;;;;;23.63;15.43;;;;;;;;;;4400409;32;20314;-52
2021/01/26 16:42:52;;;;;;;124.50;61.30;;;;;;;;;;4400330;32;20379;-51
2021/01/26 16:45:20;;;;;;;44.93;28.00;;;;;;;;;;4397794;32;20345;-53
2021/01/26 16:47:49;;;;;;;50.13;29.70;;;;;;;;;;4400100;32;20655;-53
2021/01/26 16:50:19;;;;;;;62.97;32.23;;;;;;;;;;4399188;32;20263;-53
2021/01/26 16:52:44;;;;;;;47.07;28.90;;;;;;;;;;4399069;32;20667;-53
2021/01/26 16:55:10;;;;;;;38.90;24.17;;;;;;;;;;4394886;32;20214;-52
2021/01/26 16:57:36;;;;;;;59.33;30.47;;;;;;;;;;4388848;32;20316;-53
2021/01/26 17:00:05;;;;;;;21.87;14.60;;;;;;;;;;4396945;32;20479;-52
2021/01/26 17:02:31;;;;;;;26.73;15.67;;;;;;;;;;4382566;32;20385;-50
2021/01/26 17:04:56;;;;;;;53.20;29.33;;;;;;;;;;4398900;32;20450;-51
2021/01/26 17:07:23;;;;;;;45.37;28.13;;;;;;;;;;4397906;32;20402;-51
2021/01/26 17:09:48;;;;;;;22.13;14.13;;;;;;;;;;4399835;32;20206;-52
2021/01/26 17:12:14;;;;;;;18.67;12.57;;;;;;;;;;4395397;32;20235;-52
2021/01/26 17:14:43;;;;;;;29.67;17.50;;;;;;;;;;4398289;32;20276;-52
2021/01/26 17:17:10;;;;;;;43.27;23.63;;;;;;;;;;4397240;32;20221;-51
2021/01/26 17:19:36;;;;;;;46.40;24.77;;;;;;;;;;4397867;32;20283;-52
2021/01/26 17:22:02;;;;;;;41.30;22.63;;;;;;;;;;4395941;32;20288;-53
2021/01/26 17:24:27;;;;;;;16.10;12.53;;;;;;;;;;4396937;32;20222;-53
2021/01/26 17:26:53;;;;;;;18.77;11.13;;;;;;;;;;4396110;32;20283;-53
2021/01/26 17:29:18;;;;;;;12.23;10.73;;;;;;;;;;4398937;32;20312;-54
2021/01/26 17:31:44;;;;;;;11.60;8.97;;;;;;;;;;4398825;32;20786;-53
2021/01/26 17:34:11;;;;;;;18.37;9.03;;;;;;;;;;4398401;32;20640;-53
2021/01/26 17:36:37;;;;;;;17.83;10.80;;;;;;;;;;4396334;32;20340;-54
2021/01/26 17:39:04;;;;;;;12.53;10.07;;;;;;;;;;4397638;32;20266;-52
2021/01/26 17:41:30;;;;;;;17.73;13.63;;;;;;;;;;4380201;32;20263;-53
2021/01/26 17:43:57;;;;;;;19.33;14.57;;;;;;;;;;4397955;32;20201;-52
2021/01/26 17:46:22;;;;;;;21.53;14.03;;;;;;;;;;4397560;32;20304;-52
2021/01/26 17:48:51;;;;;;;23.00;17.07;;;;;;;;;;4397982;32;20217;-52
2021/01/26 17:51:16;;;;;;;26.90;16.80;;;;;;;;;;4398627;32;20283;-51
2021/01/26 17:53:42;;;;;;;26.40;15.70;;;;;;;;;;4396193;32;20273;-52
2021/01/26 17:56:07;;;;;;;32.60;18.10;;;;;;;;;;4398515;32;20579;-51
2021/01/26 17:58:33;;;;;;;16.50;12.70;;;;;;;;;;4392787;32;20445;-51
2021/01/26 18:00:58;;;;;;;19.10;13.40;;;;;;;;;;4393580;32;20704;-50
2021/01/26 18:03:23;;;;;;;20.33;14.13;;;;;;;;;;4385543;32;20237;-50
2021/01/26 18:05:49;;;;;;;17.30;13.60;;;;;;;;;;4397460;32;20643;-51
2021/01/26 18:08:15;;;;;;;20.20;14.83;;;;;;;;;;4398793;32;20535;-51
2021/01/26 18:10:41;;;;;;;19.80;14.73;;;;;;;;;;4397385;32;20292;-52
2021/01/26 18:13:06;;;;;;;14.43;11.13;;;;;;;;;;4397434;32;20336;-51
2021/01/26 18:15:32;;;;;;;19.87;13.87;;;;;;;;;;4395522;32;20286;-51
2021/01/26 18:17:58;;;;;;;17.23;13.77;;;;;;;;;;4382580;32;20230;-50
2021/01/26 18:20:24;;;;;;;15.00;11.90;;;;;;;;;;4396954;32;20401;-52
2021/01/26 18:22:50;;;;;;;18.50;13.33;;;;;;;;;;4397061;32;20575;-50
2021/01/26 18:25:17;;;;;;;19.07;14.13;;;;;;;;;;4395800;32;20741;-50
2021/01/26 18:27:43;;;;;;;16.03;10.33;;;;;;;;;;4397445;32;20221;-49
2021/01/26 18:30:11;;;;;;;15.73;12.33;;;;;;;;;;4397546;32;20834;-50
2021/01/26 18:32:37;;;;;;;21.43;14.23;;;;;;;;;;4396625;32;20370;-51
2021/01/26 18:35:05;;;;;;;17.70;13.20;;;;;;;;;;4395656;32;20217;-51
2021/01/26 18:37:30;;;;;;;22.57;16.03;;;;;;;;;;4395335;32;20256;-52
2021/01/26 18:39:56;;;;;;;28.77;19.60;;;;;;;;;;4395908;32;20241;-51
2021/01/26 18:42:21;;;;;;;29.67;20.37;;;;;;;;;;4397746;32;20252;-52
2021/01/26 18:44:47;;;;;;;32.27;22.20;;;;;;;;;;4394125;32;20268;-52
2021/01/26 18:47:12;;;;;;;41.60;26.63;;;;;;;;;;4396701;32;20233;-53
2021/01/26 18:49:38;;;;;;;43.67;25.37;;;;;;;;;;4400063;32;20332;-53
2021/01/26 18:52:03;;;;;;;47.90;29.73;;;;;;;;;;4395550;32;20301;-52
2021/01/26 18:54:29;;;;;;;59.93;34.70;;;;;;;;;;4397434;32;20454;-52
2021/01/26 18:56:56;;;;;;;62.13;40.70;;;;;;;;;;4395969;32;20249;-51
2021/01/26 18:59:22;;;;;;;62.47;36.00;;;;;;;;;;4383079;32;20682;-52
2021/01/26 19:01:48;;;;;;;53.10;33.03;;;;;;;;;;4396835;32;20474;-53
2021/01/26 19:04:13;;;;;;;60.80;36.43;;;;;;;;;;4394330;32;20331;-50
2021/01/26 19:06:39;;;;;;;71.10;42.17;;;;;;;;;;4398619;32;20305;-51
2021/01/26 19:09:05;;;;;;;64.73;41.47;;;;;;;;;;4398818;32;20351;-52
2021/01/26 19:11:31;;;;;;;76.73;45.83;;;;;;;;;;4402599;32;20351;-53
2021/01/26 19:13:56;;;;;;;55.10;34.63;;;;;;;;;;4401447;32;20346;-53
2021/01/26 19:16:23;;;;;;;48.00;29.03;;;;;;;;;;4401082;32;20508;-53
2021/01/26 19:18:49;;;;;;;49.80;31.80;;;;;;;;;;4402046;32;20244;-52
2021/01/26 19:21:18;;;;;;;52.70;34.57;;;;;;;;;;4400772;32;20271;-52
2021/01/26 19:23:44;;;;;;;55.00;33.80;;;;;;;;;;4402034;32;20205;-52
2021/01/26 19:26:10;;;;;;;62.77;36.43;;;;;;;;;;4401072;32;20674;-53
2021/01/26 19:28:38;;;;;;;56.50;33.70;;;;;;;;;;4398085;32;20205;-53
2021/01/26 19:31:04;;;;;;;57.13;31.77;;;;;;;;;;4383659;32;20650;-53
2021/01/26 19:33:29;;;;;;;51.70;31.37;;;;;;;;;;4400957;32;20322;-52
2021/01/26 19:35:56;;;;;;;56.83;31.60;;;;;;;;;;4386489;32;20668;-53
2021/01/26 19:38:21;;;;;;;52.60;31.10;;;;;;;;;;4399720;32;20299;-52
2021/01/26 19:40:47;;;;;;;57.83;35.63;;;;;;;;;;4399466;32;20218;-52
2021/01/26 19:43:13;;;;;;;58.83;34.70;;;;;;;;;;4401278;32;20292;-52
2021/01/26 19:45:39;;;;;;;63.43;36.77;;;;;;;;;;4399887;32;20253;-53
2021/01/26 19:48:05;;;;;;;68.60;44.43;;;;;;;;;;4399195;32;20209;-51
2021/01/26 19:50:31;;;;;;;115.27;62.53;;;;;;;;;;4401249;32;20303;-51
2021/01/26 19:52:57;;;;;;;79.67;45.83;;;;;;;;;;4398190;32;20206;-53
2021/01/26 19:55:23;;;;;;;83.97;46.80;;;;;;;;;;4400295;32;20280;-54
2021/01/26 19:57:50;;;;;;;89.00;50.10;;;;;;;;;;4311636;32;20255;-55
2021/01/26 20:00:18;;;;;;;81.80;50.97;;;;;;;;;;4343034;32;21215;-52
2021/01/26 20:02:43;;;;;;;94.83;53.13;;;;;;;;;;4331490;32;20341;-53
2021/01/26 20:05:11;;;;;;;96.10;52.47;;;;;;;;;;4343145;32;20335;-53
2021/01/26 20:07:38;;;;;;;95.23;57.17;;;;;;;;;;4351537;32;20222;-52
2021/01/26 20:10:04;;;;;;;77.73;42.30;;;;;;;;;;4342109;32;20222;-51
2021/01/26 20:12:30;;;;;;;89.47;47.37;;;;;;;;;;4353441;32;20227;-52
2021/01/26 20:14:56;;;;;;;89.80;47.63;;;;;;;;;;4350968;32;20327;-52
2021/01/26 20:17:23;;;;;;;60.07;34.83;;;;;;;;;;4354566;32;20336;-51
2021/01/26 20:19:49;;;;;;;52.73;29.43;;;;;;;;;;4353500;32;20222;-51
2021/01/26 20:22:15;;;;;;;33.40;19.80;;;;;;;;;;4365186;32;20597;-50
2021/01/26 20:24:41;;;;;;;33.77;19.60;;;;;;;;;;4351271;32;20270;-54
2021/01/26 20:27:08;;;;;;;34.43;19.27;;;;;;;;;;4348262;32;20251;-53
2021/01/26 20:29:34;;;;;;;35.83;19.83;;;;;;;;;;4356686;32;20198;-52
2021/01/26 20:32:01;;;;;;;24.87;16.37;;;;;;;;;;4353986;32;20261;-52
2021/01/26 20:34:29;;;;;;;28.07;16.00;;;;;;;;;;4347845;32;20407;-52
2021/01/26 20:36:55;;;;;;;24.77;15.80;;;;;;;;;;4349931;32;20329;-51
2021/01/26 20:39:21;;;;;;;25.87;17.03;;;;;;;;;;4354370;32;20293;-54
2021/01/26 20:41:46;;;;;;;27.73;15.70;;;;;;;;;;4353106;32;20242;-52
2021/01/26 20:44:12;;;;;;;18.63;11.50;;;;;;;;;;4351113;32;20333;-53
2021/01/26 20:46:38;;;;;;;22.33;13.63;;;;;;;;;;4342253;32;20331;-52
2021/01/26 20:49:04;;;;;;;39.10;19.27;;;;;;;;;;4353156;32;20663;-53
2021/01/26 20:51:29;;;;;;;59.90;28.97;;;;;;;;;;4355550;32;20294;-51
2021/01/26 20:53:55;;;;;;;56.27;26.97;;;;;;;;;;4350350;32;20237;-52
2021/01/26 20:56:20;;;;;;;32.53;20.90;;;;;;;;;;4350314;32;20371;-52
2021/01/26 20:58:46;;;;;;;31.97;20.27;;;;;;;;;;4349634;32;20279;-53
2021/01/26 21:01:11;;;;;;;32.90;16.70;;;;;;;;;;4351593;32;20599;-51
2021/01/26 21:03:37;;;;;;;31.93;18.90;;;;;;;;;;4353698;32;20270;-51
2021/01/26 21:06:03;;;;;;;30.90;16.63;;;;;;;;;;4351431;32;20250;-52
2021/01/26 21:08:28;;;;;;;24.97;15.40;;;;;;;;;;4350694;32;20234;-53
2021/01/26 21:10:54;;;;;;;17.43;12.17;;;;;;;;;;4349658;32;20376;-52
2021/01/26 21:13:19;;;;;;;14.77;10.93;;;;;;;;;;4352083;32;20296;-52